Hazelwood, Washington
Current Conditions -  °F | °C
As of 7:53 AM on Wednesday 22 Oct 2014 (Local Time) from KRNT Reporting Station
Overcast Overcast  
Wind Chill: 56°   Ceiling: 3900
Heat Index: 56°   Visibility: 10mi
Dew Point: 55°   Wind: 5mph
Humidity: 97%   Direction: 120°ESE
Pressure: 29.69"   Gusts: NA
Location:  47.5152°N, 122.184°W
Report Text: KRNT 221453Z 12004KT 10SM BKN039 OVC085 13/13 A2969 RMK AO2 RAE44 SLP060 P0003 60020 T01330128 51014
Loading
Personal Weather Stations






























Interactive Weather Map
Tropical Storm Tracking
New forecast layout! Learn more

10-Day Weather Forecast

Advertisements
Track Severe Weather on mobile